Observation data for Seminole on 06/19/2019      Previous  Date  Next       Current Mesonet Observations  Soil Data  Daily Summary Page  Observations in Plain Language
KSM1 190500Z 20005KT 23/10 A2997 RMK A01 T02310097  RH  044%=      5-min Rain = 0
KSM1 190505Z 18005KT 23/11 A2997 RMK A01 T02260111  RH  050%=      5-min Rain = 0
KSM1 190510Z 17001KT 22/12 A2997 RMK A01 T02210123  RH  056%=      5-min Rain = 0
KSM1 190515Z 05003G8KT 21/13 A2997 RMK A01 T02080130  RH  063%=      5-min Rain = 0
KSM1 190520Z 03009KT 20/13 A2998 RMK A01 T02020128  RH  065%=      5-min Rain = 0
KSM1 190525Z 02008KT 20/13 A2999 RMK A01 T02040126  RH  063%=      5-min Rain = 0
KSM1 190530Z 04005KT 21/13 A2998 RMK A01 T02050127  RH  063%=      5-min Rain = 0
KSM1 190535Z 08004KT 20/13 A2998 RMK A01 T02040133  RH  066%=      5-min Rain = 0
KSM1 190540Z 09006KT 20/14 A2998 RMK A01 T01990139  RH  071%=      5-min Rain = 0
KSM1 190545Z 09005KT 20/14 A2998 RMK A01 T01950141  RH  074%=      5-min Rain = 0
KSM1 190550Z 08006KT 19/14 A2998 RMK A01 T01920142  RH  076%=      5-min Rain = 0
KSM1 190555Z 08007KT 19/14 A2998 RMK A01 T01910144  RH  077%=      5-min Rain = 0
KSM1 190600Z 10007KT 19/14 A2997 RMK A01 T01940135  RH  071%=      5-min Rain = 0
KSM1 190605Z 12007KT 20/14 A2997 RMK A01 T01960136  RH  071%=      5-min Rain = 0
KSM1 190610Z 12007KT 20/13 A2996 RMK A01 T01970133  RH  069%=      5-min Rain = 0
KSM1 190615Z 12008KT 20/14 A2996 RMK A01 T01960135  RH  071%=      5-min Rain = 0
KSM1 190620Z 12007KT 19/13 A2996 RMK A01 T01940132  RH  070%=      5-min Rain = 0
KSM1 190625Z 13006KT 19/13 A2996 RMK A01 T01940130  RH  069%=      5-min Rain = 0
KSM1 190630Z 14006KT 19/13 A2996 RMK A01 T01940129  RH  068%=      5-min Rain = 0
KSM1 190635Z 14007KT 19/13 A2995 RMK A01 T01940128  RH  068%=      5-min Rain = 0
KSM1 190640Z 14007KT 20/13 A2995 RMK A01 T01950126  RH  067%=      5-min Rain = 0
KSM1 190645Z 15007KT 20/13 A2995 RMK A01 T01950127  RH  067%=      5-min Rain = 0
KSM1 190650Z 15007KT 20/13 A2995 RMK A01 T01950126  RH  067%=      5-min Rain = 0
KSM1 190655Z 15008KT 19/13 A2994 RMK A01 T01940128  RH  068%=      5-min Rain = 0
KSM1 190700Z 15009KT 20/13 A2994 RMK A01 T01950127  RH  067%=      5-min Rain = 0
KSM1 190705Z 14011KT 20/13 A2994 RMK A01 T01990125  RH  065%=      5-min Rain = 0
KSM1 190710Z 14012KT 20/13 A2994 RMK A01 T02040125  RH  063%=      5-min Rain = 0
KSM1 190715Z 14014KT 21/12 A2993 RMK A01 T02060124  RH  062%=      5-min Rain = 0
KSM1 190720Z 15014KT 21/12 A2993 RMK A01 T02080119  RH  059%=      5-min Rain = 0
KSM1 190725Z 15013KT 21/11 A2992 RMK A01 T02090113  RH  056%=      5-min Rain = 0
KSM1 190730Z 14012KT 21/11 A2993 RMK A01 T02090111  RH  056%=      5-min Rain = 0
KSM1 190735Z 14012KT 21/11 A2992 RMK A01 T02070112  RH  057%=      5-min Rain = 0
KSM1 190740Z 14011KT 21/11 A2992 RMK A01 T02060113  RH  057%=      5-min Rain = 0
KSM1 190745Z 15010KT 21/12 A2992 RMK A01 T02050116  RH  058%=      5-min Rain = 0
KSM1 190750Z 15010KT 20/12 A2992 RMK A01 T02040117  RH  059%=      5-min Rain = 0
KSM1 190755Z 15010KT 20/12 A2992 RMK A01 T02030117  RH  060%=      5-min Rain = 0
KSM1 190800Z 15010KT 20/12 A2991 RMK A01 T02020119  RH  061%=      5-min Rain = 0
KSM1 190805Z 15010KT 20/12 A2991 RMK A01 T02000120  RH  062%=      5-min Rain = 0
KSM1 190810Z 15009KT 20/12 A2991 RMK A01 T01990121  RH  063%=      5-min Rain = 0
KSM1 190815Z 16010KT 20/12 A2991 RMK A01 T01970122  RH  064%=      5-min Rain = 0
KSM1 190820Z 16010KT 20/12 A2991 RMK A01 T01960122  RH  064%=      5-min Rain = 0
KSM1 190825Z 16010KT 20/12 A299 RMK A01 T01950122  RH  065%=      5-min Rain = 0
KSM1 190830Z 16010KT 19/12 A299 RMK A01 T01940123  RH  066%=      5-min Rain = 0
KSM1 190835Z 17009KT 19/12 A2991 RMK A01 T01940122  RH  066%=      5-min Rain = 0
KSM1 190840Z 16009KT 19/12 A299 RMK A01 T01940122  RH  066%=      5-min Rain = 0
KSM1 190845Z 16010KT 19/12 A299 RMK A01 T01940123  RH  066%=      5-min Rain = 0
KSM1 190850Z 16010KT 19/12 A299 RMK A01 T01940122  RH  066%=      5-min Rain = 0
KSM1 190855Z 16010KT 19/12 A2989 RMK A01 T01930122  RH  066%=      5-min Rain = 0
KSM1 190900Z 16010KT 19/12 A2989 RMK A01 T01930122  RH  066%=      5-min Rain = 0
KSM1 190905Z 16009KT 19/12 A2989 RMK A01 T01920122  RH  066%=      5-min Rain = 0
KSM1 190910Z 16008KT 19/12 A2989 RMK A01 T01900122  RH  067%=      5-min Rain = 0
KSM1 190915Z 16007KT 19/12 A2989 RMK A01 T01880122  RH  068%=      5-min Rain = 0
KSM1 190920Z 16008KT 19/12 A2989 RMK A01 T01870122  RH  068%=      5-min Rain = 0
KSM1 190925Z 16008KT 19/12 A2989 RMK A01 T01860122  RH  069%=      5-min Rain = 0
KSM1 190930Z 16007KT 18/12 A2989 RMK A01 T01840123  RH  070%=      5-min Rain = 0
KSM1 190935Z 16007KT 18/12 A2989 RMK A01 T01830124  RH  071%=      5-min Rain = 0
KSM1 190940Z 17007KT 18/12 A2989 RMK A01 T01820124  RH  072%=      5-min Rain = 0
KSM1 190945Z 17008KT 18/12 A2989 RMK A01 T01830124  RH  071%=      5-min Rain = 0
KSM1 190950Z 17008KT 18/13 A2989 RMK A01 T01830125  RH  072%=      5-min Rain = 0
KSM1 190955Z 17007KT 18/13 A2988 RMK A01 T01830125  RH  072%=      5-min Rain = 0
KSM1 191000Z 17007KT 18/13 A2988 RMK A01 T01820126  RH  072%=      5-min Rain = 0
KSM1 191005Z 18006KT 18/13 A2989 RMK A01 T01800126  RH  073%=      5-min Rain = 0
KSM1 191010Z 18007KT 18/13 A2989 RMK A01 T01800125  RH  073%=      5-min Rain = 0
KSM1 191015Z 18007KT 18/13 A2989 RMK A01 T01810126  RH  073%=      5-min Rain = 0
KSM1 191020Z 18007KT 18/13 A2988 RMK A01 T01820127  RH  073%=      5-min Rain = 0
KSM1 191025Z 18009KT 18/13 A2988 RMK A01 T01820127  RH  073%=      5-min Rain = 0
KSM1 191030Z 17009KT 18/13 A2988 RMK A01 T01810128  RH  074%=      5-min Rain = 0
KSM1 191035Z 17009KT 18/13 A2988 RMK A01 T01810129  RH  074%=      5-min Rain = 0
KSM1 191040Z 18009KT 18/13 A2988 RMK A01 T01810129  RH  075%=      5-min Rain = 0
KSM1 191045Z 18008KT 18/13 A2988 RMK A01 T01810130  RH  075%=      5-min Rain = 0
KSM1 191050Z 19008KT 18/13 A2988 RMK A01 T01800129  RH  075%=      5-min Rain = 0
KSM1 191055Z 20007KT 18/13 A2988 RMK A01 T01790128  RH  075%=      5-min Rain = 0
KSM1 191100Z 20007KT 18/13 A2988 RMK A01 T01780128  RH  076%=      5-min Rain = 0
KSM1 191105Z 19008KT 18/13 A2988 RMK A01 T01780130  RH  077%=      5-min Rain = 0
KSM1 191110Z 19009KT 18/13 A2988 RMK A01 T01780131  RH  077%=      5-min Rain = 0
KSM1 191115Z 20008KT 18/13 A2988 RMK A01 T01770132  RH  078%=      5-min Rain = 0
KSM1 191120Z 20007KT 18/13 A2988 RMK A01 T01770132  RH  078%=      5-min Rain = 0
KSM1 191125Z 21006KT 18/13 A2989 RMK A01 T01770132  RH  078%=      5-min Rain = 0
KSM1 191130Z 21008KT 18/13 A2989 RMK A01 T01760133  RH  079%=      5-min Rain = 0
KSM1 191135Z 24006KT 18/13 A299 RMK A01 T01760133  RH  079%=      5-min Rain = 0
KSM1 191140Z 33009G14KT 17/13 A2991 RMK A01 T01740134  RH  080%=      5-min Rain = 0
KSM1 191145Z 31005G12KT 17/13 A2991 RMK A01 T01690133  RH  083%=      5-min Rain = 0
KSM1 191150Z 21006KT 17/13 A299 RMK A01 T01720133  RH  081%=      5-min Rain = 0
KSM1 191155Z 24005KT 17/13 A2991 RMK A01 T01740133  RH  080%=      5-min Rain = 0
KSM1 191200Z 35008KT 17/13 A2993 RMK A01 T01730134  RH  081%=      5-min Rain = 0
KSM1 191205Z 35006KT 17/14 A2993 RMK A01 T01710136  RH  083%=      5-min Rain = 0
KSM1 191210Z 30003G8KT 17/14 A2992 RMK A01 T01730135  RH  082%=      5-min Rain = 0
KSM1 191215Z 34006KT 17/13 A2992 RMK A01 T01740134  RH  081%=      5-min Rain = 0
KSM1 191220Z 35007KT 18/13 A2993 RMK A01 T01760134  RH  080%=      5-min Rain = 0
KSM1 191225Z 01003KT 18/14 A2992 RMK A01 T01770136  RH  080%=      5-min Rain = 0
KSM1 191230Z 00004KT 18/14 A2992 RMK A01 T01770137  RH  081%=      5-min Rain = 0
KSM1 191235Z 35002KT 18/14 A2992 RMK A01 T01780138  RH  081%=      5-min Rain = 0
KSM1 191240Z 27001KT 18/14 A2991 RMK A01 T01800138  RH  079%=      5-min Rain = 0
KSM1 191245Z 31002KT 18/14 A2992 RMK A01 T01830137  RH  078%=      5-min Rain = 0
KSM1 191250Z 33001KT 19/14 A2992 RMK A01 T01860138  RH  077%=      5-min Rain = 0
KSM1 191255Z 23002KT 19/14 A2992 RMK A01 T01880137  RH  075%=      5-min Rain = 0
KSM1 191300Z 22003KT 19/14 A2992 RMK A01 T01890137  RH  075%=      5-min Rain = 0
KSM1 191305Z 21003KT 19/14 A2992 RMK A01 T01910138  RH  074%=      5-min Rain = 0
KSM1 191310Z 26003KT 19/14 A2992 RMK A01 T01940138  RH  073%=      5-min Rain = 0
KSM1 191315Z 33004KT 20/14 A2993 RMK A01 T01970138  RH  072%=      5-min Rain = 0
KSM1 191320Z 25003KT 20/14 A2992 RMK A01 T01990138  RH  071%=      5-min Rain = 0
KSM1 191325Z 31004KT 20/14 A2993 RMK A01 T02010137  RH  069%=      5-min Rain = 0
KSM1 191330Z 33004KT 20/14 A2993 RMK A01 T02040136  RH  068%=      5-min Rain = 0
KSM1 191335Z 29004KT 21/14 A2992 RMK A01 T02060135  RH  066%=      5-min Rain = 0
KSM1 191340Z 30006KT 21/14 A2992 RMK A01 T02080136  RH  066%=      5-min Rain = 0
KSM1 191345Z 32006KT 21/14 A2993 RMK A01 T02100136  RH  066%=      5-min Rain = 0
KSM1 191350Z 33006KT 21/14 A2993 RMK A01 T02130138  RH  065%=      5-min Rain = 0
KSM1 191355Z 31006KT 22/14 A2993 RMK A01 T02150137  RH  064%=      5-min Rain = 0
KSM1 191400Z 31005KT 22/14 A2993 RMK A01 T02180141  RH  064%=      5-min Rain = 0
KSM1 191405Z 32006KT 22/14 A2993 RMK A01 T02200138  RH  062%=      5-min Rain = 0
KSM1 191410Z 32006KT 22/14 A2993 RMK A01 T02190136  RH  062%=      5-min Rain = 0
KSM1 191415Z 30005KT 22/14 A2993 RMK A01 T02210138  RH  062%=      5-min Rain = 0
KSM1 191420Z 31004KT 22/14 A2993 RMK A01 T02220138  RH  061%=      5-min Rain = 0
KSM1 191425Z 30005KT 22/14 A2993 RMK A01 T02240137  RH  060%=      5-min Rain = 0
KSM1 191430Z 28004KT 23/14 A2993 RMK A01 T02260140  RH  061%=      5-min Rain = 0
KSM1 191435Z 29005KT 23/14 A2993 RMK A01 T02290140  RH  060%=      5-min Rain = 0
KSM1 191440Z 27004KT 23/14 A2993 RMK A01 T02290139  RH  059%=      5-min Rain = 0
KSM1 191445Z 29003KT 23/14 A2993 RMK A01 T02310140  RH  059%=      5-min Rain = 0
KSM1 191450Z 28004KT 24/14 A2993 RMK A01 T02350141  RH  058%=      5-min Rain = 0
KSM1 191455Z 27002KT 24/14 A2993 RMK A01 T02380141  RH  057%=      5-min Rain = 0
KSM1 191500Z 29004KT 24/14 A2993 RMK A01 T02400141  RH  056%=      5-min Rain = 0
KSM1 191505Z 28003KT 24/14 A2993 RMK A01 T02400142  RH  056%=      5-min Rain = 0
KSM1 191510Z 28003KT 24/14 A2992 RMK A01 T02410141  RH  056%=      5-min Rain = 0
KSM1 191515Z 27002KT 24/14 A2992 RMK A01 T02430142  RH  055%=      5-min Rain = 0
KSM1 191520Z 28002KT 25/14 A2992 RMK A01 T02480142  RH  054%=      5-min Rain = 0
KSM1 191525Z 26002KT 25/14 A2992 RMK A01 T02500143  RH  054%=      5-min Rain = 0
KSM1 191530Z 23003KT 25/14 A2992 RMK A01 T02520142  RH  052%=      5-min Rain = 0
KSM1 191535Z 25003KT 25/14 A2992 RMK A01 T02540141  RH  052%=      5-min Rain = 0
KSM1 191540Z 29002KT 25/14 A2992 RMK A01 T02540142  RH  052%=      5-min Rain = 0
KSM1 191545Z 26003KT 26/14 A2992 RMK A01 T02580142  RH  051%=      5-min Rain = 0
KSM1 191550Z 25004KT 26/14 A2992 RMK A01 T02600142  RH  050%=      5-min Rain = 0
KSM1 191555Z 27004KT 26/14 A2992 RMK A01 T02620141  RH  049%=      5-min Rain = 0
KSM1 191600Z 23005KT 26/14 A2992 RMK A01 T02630143  RH  050%=      5-min Rain = 0
KSM1 191605Z 24004KT 27/14 A2992 RMK A01 T02670144  RH  049%=      5-min Rain = 0
KSM1 191610Z 26004KT 27/14 A2992 RMK A01 T02720144  RH  048%=      5-min Rain = 0
KSM1 191615Z 26004KT 27/14 A2992 RMK A01 T02740143  RH  047%=      5-min Rain = 0
KSM1 191620Z 26004KT 28/14 A2992 RMK A01 T02760141  RH  045%=      5-min Rain = 0
KSM1 191625Z 25004KT 28/14 A2992 RMK A01 T02770139  RH  045%=      5-min Rain = 0
KSM1 191630Z 26003KT 28/14 A2992 RMK A01 T02790141  RH  045%=      5-min Rain = 0
KSM1 191635Z 26004KT 28/14 A2992 RMK A01 T02830142  RH  044%=      5-min Rain = 0
KSM1 191640Z 26005KT 29/14 A2992 RMK A01 T02860140  RH  043%=      5-min Rain = 0
KSM1 191645Z 26004KT 29/14 A2992 RMK A01 T02880142  RH  043%=      5-min Rain = 0
KSM1 191650Z 26005KT 29/14 A2992 RMK A01 T02930140  RH  041%=      5-min Rain = 0
KSM1 191655Z 28004KT 29/14 A2992 RMK A01 T02930138  RH  040%=      5-min Rain = 0
KSM1 191700Z 25005KT 29/14 A2992 RMK A01 T02940140  RH  041%=      5-min Rain = 0
KSM1 191705Z 27006KT 30/14 A2992 RMK A01 T03000137  RH  038%=      5-min Rain = 0
KSM1 191710Z 29005KT 30/14 A2992 RMK A01 T03040138  RH  038%=      5-min Rain = 0
KSM1 191715Z 29005KT 31/14 A2992 RMK A01 T03060135  RH  037%=      5-min Rain = 0
KSM1 191720Z 31003KT 31/13 A2991 RMK A01 T03080127  RH  035%=      5-min Rain = 0
KSM1 191725Z 31005KT 31/13 A2991 RMK A01 T03100127  RH  034%=      5-min Rain = 0
KSM1 191730Z 26005KT 31/12 A2991 RMK A01 T03140122  RH  032%=      5-min Rain = 0
KSM1 191735Z 31006KT 32/12 A2991 RMK A01 T03160122  RH  032%=      5-min Rain = 0
KSM1 191740Z 29007KT 32/12 A2991 RMK A01 T03170119  RH  031%=      5-min Rain = 0
KSM1 191745Z 30006KT 32/12 A2991 RMK A01 T03190118  RH  030%=      5-min Rain = 0
KSM1 191750Z 30006KT 32/12 A2991 RMK A01 T03190122  RH  031%=      5-min Rain = 0
KSM1 191755Z 30006G11KT 32/12 A2991 RMK A01 T03220118  RH  030%=      5-min Rain = 0
KSM1 191800Z 31007KT 32/12 A2991 RMK A01 T03240117  RH  029%=      5-min Rain = 0
KSM1 191805Z 31006KT 33/12 A2991 RMK A01 T03250120  RH  030%=      5-min Rain = 0
KSM1 191810Z 30007G12KT 33/12 A2991 RMK A01 T03290118  RH  029%=      5-min Rain = 0
KSM1 191815Z 30011G17KT 33/11 A2991 RMK A01 T03320109  RH  027%=      5-min Rain = 0
KSM1 191820Z 30008KT 33/11 A2991 RMK A01 T03320105  RH  026%=      5-min Rain = 0
KSM1 191825Z 29006KT 33/11 A299 RMK A01 T03340110  RH  026%=      5-min Rain = 0
KSM1 191830Z 30005KT 34/11 A299 RMK A01 T03350112  RH  027%=      5-min Rain = 0
KSM1 191835Z 30006G13KT 34/10 A299 RMK A01 T03380103  RH  025%=      5-min Rain = 0
KSM1 191840Z 29009G14KT 34/09 A299 RMK A01 T03390090  RH  022%=      5-min Rain = 0
KSM1 191845Z 30008KT 34/09 A2989 RMK A01 T03400086  RH  022%=      5-min Rain = 0
KSM1 191850Z 30010G16KT 34/08 A2989 RMK A01 T03440080  RH  020%=      5-min Rain = 0
KSM1 191855Z 31010G17KT 35/07 A2989 RMK A01 T03450074  RH  019%=      5-min Rain = 0
KSM1 191900Z 31011G17KT 35/07 A2989 RMK A01 T03460066  RH  018%=      5-min Rain = 0
KSM1 191905Z 30009KT 35/06 A2989 RMK A01 T03470059  RH  017%=      5-min Rain = 0
KSM1 191910Z 31012G19KT 35/05 A2988 RMK A01 T03500053  RH  016%=      5-min Rain = 0
KSM1 191915Z 31011G16KT 35/04 A2988 RMK A01 T03500041  RH  015%=      5-min Rain = 0
KSM1 191920Z 32014G20KT 35/04 A2988 RMK A01 T03520040  RH  015%=      5-min Rain = 0
KSM1 191925Z 31013G19KT 35/04 A2988 RMK A01 T03500038  RH  015%=      5-min Rain = 0
KSM1 191930Z 31012G17KT 35/04 A2987 RMK A01 T03520039  RH  014%=      5-min Rain = 0
KSM1 191935Z 31014G19KT 35/03 A2987 RMK A01 T03510034  RH  014%=      5-min Rain = 0
KSM1 191940Z 29012G19KT 35/03 A2987 RMK A01 T03530034  RH  014%=      5-min Rain = 0
KSM1 191945Z 31015G22KT 36/04 A2987 RMK A01 T03570036  RH  014%=      5-min Rain = 0
KSM1 191950Z 31012G19KT 36/04 A2987 RMK A01 T03550037  RH  014%=      5-min Rain = 0
KSM1 191955Z 32014G21KT 35/03 A2987 RMK A01 T03540032  RH  014%=      5-min Rain = 0
KSM1 192000Z 31013G19KT 35/03 A2987 RMK A01 T03530030  RH  014%=      5-min Rain = 0
KSM1 192005Z 31014G21KT 35/03 A2987 RMK A01 T03540028  RH  013%=      5-min Rain = 0
KSM1 192010Z 30013G19KT 36/03 A2986 RMK A01 T03600030  RH  013%=      5-min Rain = 0
KSM1 192015Z 30014G22KT 36/03 A2986 RMK A01 T03600025  RH  013%=      5-min Rain = 0
KSM1 192020Z 28017G27KT 36/02 A2986 RMK A01 T03600016  RH  012%=      5-min Rain = 0
KSM1 192025Z 28013G19KT 36/02 A2986 RMK A01 T03620016  RH  012%=      5-min Rain = 0
KSM1 192030Z 27011G18KT 36/01 A2986 RMK A01 T03610014  RH  012%=      5-min Rain = 0
KSM1 192035Z 28014G20KT 36/02 A2986 RMK A01 T03620015  RH  012%=      5-min Rain = 0
KSM1 192040Z 27009KT 36/01 A2986 RMK A01 T03610013  RH  011%=      5-min Rain = 0
KSM1 192045Z 27007G13KT 36/02 A2986 RMK A01 T03640018  RH  012%=      5-min Rain = 0
KSM1 192050Z 28011G18KT 37/02 A2985 RMK A01 T03660015  RH  011%=      5-min Rain = 0
KSM1 192055Z 28011G17KT 37/01 A2985 RMK A01 T03650012  RH  011%=      5-min Rain = 0
KSM1 192100Z 27012G20KT 36/01 A2985 RMK A01 T03630012  RH  011%=      5-min Rain = 0
KSM1 192105Z 27010G17KT 36/01 A2985 RMK A01 T03640014  RH  011%=      5-min Rain = 0
KSM1 192110Z 29011G17KT 36/01 A2985 RMK A01 T03640013  RH  011%=      5-min Rain = 0
KSM1 192115Z 27013G21KT 37/01 A2985 RMK A01 T03660014  RH  011%=      5-min Rain = 0
KSM1 192120Z 27013KT 36/01 A2985 RMK A01 T03620006  RH  011%=      5-min Rain = 0
KSM1 192125Z 26013G19KT 36/01 A2985 RMK A01 T03640007  RH  011%=      5-min Rain = 0
KSM1 192130Z 27009G15KT 37/01 A2984 RMK A01 T03660009  RH  011%=      5-min Rain = 0
KSM1 192135Z 30012G21KT 37/01 A2984 RMK A01 T03680014  RH  011%=      5-min Rain = 0
KSM1 192140Z 29011G19KT 37/01 A2984 RMK A01 T03670011  RH  011%=      5-min Rain = 0
KSM1 192145Z 27017G25KT 37/01 A2984 RMK A01 T03650006  RH  011%=      5-min Rain = 0
KSM1 192150Z 26016G23KT 36/01 A2984 RMK A01 T03620008  RH  011%=      5-min Rain = 0
KSM1 192155Z 27016G21KT 36/00 A2984 RMK A01 T03620004  RH  011%=      5-min Rain = 0
KSM1 192200Z 26013KT 36/01 A2984 RMK A01 T03610006  RH  011%=      5-min Rain = 0
KSM1 192205Z 26014G25KT 36/01 A2983 RMK A01 T03630013  RH  011%=      5-min Rain = 0
KSM1 192210Z 27014G20KT 36/01 A2983 RMK A01 T03640009  RH  011%=      5-min Rain = 0
KSM1 192215Z 26014G22KT 36/01 A2983 RMK A01 T03640010  RH  011%=      5-min Rain = 0
KSM1 192220Z 27012G19KT 36/01 A2983 RMK A01 T03640014  RH  011%=      5-min Rain = 0
KSM1 192225Z 27010G16KT 37/02 A2983 RMK A01 T03650015  RH  011%=      5-min Rain = 0
KSM1 192230Z 25010G16KT 37/02 A2983 RMK A01 T03660018  RH  012%=      5-min Rain = 0
KSM1 192235Z 27013G20KT 37/01 A2983 RMK A01 T03650014  RH  011%=      5-min Rain = 0
KSM1 192240Z 27010G15KT 36/02 A2983 RMK A01 T03640016  RH  011%=      5-min Rain = 0
KSM1 192245Z 25012G18KT 37/01 A2982 RMK A01 T03650011  RH  011%=      5-min Rain = 0
KSM1 192250Z 26014G22KT 37/01 A2982 RMK A01 T03650012  RH  011%=      5-min Rain = 0
KSM1 192255Z 26014G19KT 36/01 A2982 RMK A01 T03640008  RH  011%=      5-min Rain = 0
KSM1 192300Z 27015G21KT 36/01 A2982 RMK A01 T03620006  RH  011%=      5-min Rain = 0
KSM1 192305Z 26013G18KT 36/00 A2982 RMK A01 T03610002  RH  010%=      5-min Rain = 0
KSM1 192310Z 27014G21KT 36/00 A2982 RMK A01 T03630002  RH  010%=      5-min Rain = 0
KSM1 192315Z 27015G20KT 36/M00 A2982 RMK A01 T03611001  RH  010%=      5-min Rain = 0
KSM1 192320Z 26012G17KT 36/M00 A2982 RMK A01 T03611003  RH  010%=      5-min Rain = 0
KSM1 192325Z 27011G17KT 36/M00 A2981 RMK A01 T03621001  RH  010%=      5-min Rain = 0
KSM1 192330Z 26013KT 36/00 A2981 RMK A01 T036200-0  RH  010%=      5-min Rain = 0
KSM1 192335Z 26008G14KT 36/00 A2981 RMK A01 T03620003  RH  011%=      5-min Rain = 0
KSM1 192340Z 26008G14KT 36/01 A2981 RMK A01 T03640007  RH  011%=      5-min Rain = 0
KSM1 192345Z 26014KT 36/00 A2981 RMK A01 T03620001  RH  010%=      5-min Rain = 0
KSM1 192350Z 25011G16KT 36/00 A2981 RMK A01 T03610000  RH  010%=      5-min Rain = 0
KSM1 192355Z 26010G15KT 36/00 A2981 RMK A01 T03610004  RH  011%=      5-min Rain = 0
KSM1 200000Z 26010KT 36/00 A2981 RMK A01 T03600002  RH  011%=      5-min Rain = 0
KSM1 200005Z 26010KT 36/00 A2981 RMK A01 T03600003  RH  011%=      5-min Rain = 0
KSM1 200010Z 25008KT 36/01 A2981 RMK A01 T03590006  RH  011%=      5-min Rain = 0
KSM1 200015Z 25008KT 36/00 A298 RMK A01 T03580003  RH  011%=      5-min Rain = 0
KSM1 200020Z 25007KT 36/00 A298 RMK A01 T03580004  RH  011%=      5-min Rain = 0
KSM1 200025Z 24006KT 36/01 A298 RMK A01 T03580008  RH  011%=      5-min Rain = 0
KSM1 200030Z 27007KT 36/01 A298 RMK A01 T03570013  RH  012%=      5-min Rain = 0
KSM1 200035Z 26005KT 36/02 A298 RMK A01 T03560015  RH  012%=      5-min Rain = 0
KSM1 200040Z 26005KT 36/01 A298 RMK A01 T03560010  RH  011%=      5-min Rain = 0
KSM1 200045Z 26006KT 36/01 A298 RMK A01 T03560010  RH  011%=      5-min Rain = 0
KSM1 200050Z 26005KT 36/00 A298 RMK A01 T03560001  RH  011%=      5-min Rain = 0
KSM1 200055Z 25004KT 36/01 A298 RMK A01 T03560011  RH  011%=      5-min Rain = 0
KSM1 200100Z 25004KT 35/02 A298 RMK A01 T03520024  RH  013%=      5-min Rain = 0
KSM1 200105Z 26004KT 35/02 A298 RMK A01 T03500022  RH  013%=      5-min Rain = 0
KSM1 200110Z 26003KT 35/02 A298 RMK A01 T03500024  RH  013%=      5-min Rain = 0
KSM1 200115Z 25004KT 35/02 A298 RMK A01 T03480024  RH  013%=      5-min Rain = 0
KSM1 200120Z 25005KT 34/02 A298 RMK A01 T03430019  RH  013%=      5-min Rain = 0
KSM1 200125Z 26005KT 34/02 A298 RMK A01 T03400015  RH  013%=      5-min Rain = 0
KSM1 200130Z 27004KT 34/02 A298 RMK A01 T03380021  RH  014%=      5-min Rain = 0
KSM1 200135Z 26003KT 33/03 A298 RMK A01 T03330025  RH  014%=      5-min Rain = 0
KSM1 200140Z 26005KT 33/02 A298 RMK A01 T03320017  RH  014%=      5-min Rain = 0
KSM1 200145Z 25003KT 33/02 A298 RMK A01 T03290018  RH  014%=      5-min Rain = 0
KSM1 200150Z 23004KT 32/04 A298 RMK A01 T03210037  RH  017%=      5-min Rain = 0
KSM1 200155Z 22003KT 32/03 A298 RMK A01 T03160032  RH  017%=      5-min Rain = 0
KSM1 200200Z 20003KT 31/03 A2981 RMK A01 T03130033  RH  017%=      5-min Rain = 0
KSM1 200205Z 21004KT 31/02 A2981 RMK A01 T03110024  RH  016%=      5-min Rain = 0
KSM1 200210Z 21004KT 31/03 A2981 RMK A01 T03080027  RH  017%=      5-min Rain = 0
KSM1 200215Z 24003KT 31/05 A2981 RMK A01 T03050047  RH  020%=      5-min Rain = 0
KSM1 200220Z 26002KT 30/06 A2981 RMK A01 T02960055  RH  022%=      5-min Rain = 0
KSM1 200225Z 25002KT 30/05 A2981 RMK A01 T02970050  RH  021%=      5-min Rain = 0
KSM1 200230Z 23003KT 30/04 A2981 RMK A01 T02970035  RH  019%=      5-min Rain = 0
KSM1 200235Z 23003KT 30/04 A2981 RMK A01 T02960043  RH  020%=      5-min Rain = 0
KSM1 200240Z 27004KT 29/07 A2981 RMK A01 T02910071  RH  026%=      5-min Rain = 0
KSM1 200245Z 28004KT 28/08 A2982 RMK A01 T02790080  RH  029%=      5-min Rain = 0
KSM1 200250Z 25003KT 28/06 A2982 RMK A01 T02770062  RH  026%=      5-min Rain = 0
KSM1 200255Z 24004KT 28/03 A2982 RMK A01 T02830032  RH  020%=      5-min Rain = 0
KSM1 200300Z 24005KT 29/03 A2982 RMK A01 T02870028  RH  019%=      5-min Rain = 0
KSM1 200305Z 24004KT 29/03 A2982 RMK A01 T02850031  RH  020%=      5-min Rain = 0
KSM1 200310Z 24004KT 28/03 A2982 RMK A01 T02820032  RH  021%=      5-min Rain = 0
KSM1 200315Z 23005KT 28/03 A2982 RMK A01 T02790033  RH  021%=      5-min Rain = 0
KSM1 200320Z 22005KT 27/05 A2983 RMK A01 T02740045  RH  024%=      5-min Rain = 0
KSM1 200325Z 22006KT 27/04 A2983 RMK A01 T02710042  RH  023%=      5-min Rain = 0
KSM1 200330Z 23006KT 27/03 A2983 RMK A01 T02710033  RH  022%=      5-min Rain = 0
KSM1 200335Z 23006KT 27/03 A2983 RMK A01 T02730029  RH  021%=      5-min Rain = 0
KSM1 200340Z 23006KT 27/03 A2983 RMK A01 T02730026  RH  021%=      5-min Rain = 0
KSM1 200345Z 24006KT 27/03 A2983 RMK A01 T02720025  RH  021%=      5-min Rain = 0
KSM1 200350Z 24005KT 27/03 A2984 RMK A01 T02690032  RH  022%=      5-min Rain = 0
KSM1 200355Z 25005KT 27/03 A2984 RMK A01 T02670031  RH  022%=      5-min Rain = 0
KSM1 200400Z 25005KT 27/03 A2984 RMK A01 T02650029  RH  022%=      5-min Rain = 0
KSM1 200405Z 25006KT 26/03 A2984 RMK A01 T02640025  RH  022%=      5-min Rain = 0
KSM1 200410Z 25006KT 26/02 A2984 RMK A01 T02640016  RH  020%=      5-min Rain = 0
KSM1 200415Z 25006KT 26/02 A2984 RMK A01 T02630015  RH  020%=      5-min Rain = 0
KSM1 200420Z 25006KT 26/02 A2984 RMK A01 T02590022  RH  022%=      5-min Rain = 0
KSM1 200425Z 25006KT 25/03 A2984 RMK A01 T02540028  RH  023%=      5-min Rain = 0
KSM1 200430Z 24006KT 25/03 A2984 RMK A01 T02490028  RH  024%=      5-min Rain = 0
KSM1 200435Z 24007KT 25/02 A2984 RMK A01 T02480020  RH  023%=      5-min Rain = 0
KSM1 200440Z 25007KT 25/02 A2984 RMK A01 T02500017  RH  022%=      5-min Rain = 0
KSM1 200445Z 25007KT 25/02 A2984 RMK A01 T02510015  RH  022%=      5-min Rain = 0
KSM1 200450Z 25007KT 25/01 A2984 RMK A01 T02520012  RH  021%=      5-min Rain = 0
KSM1 200455Z 25007KT 25/01 A2984 RMK A01 T02520010  RH  021%=      5-min Rain = 0

Page generated in 0.0343 seconds.